createdAt,value
2017-12-26T00:01:37.278Z,100026.05
2017-12-26T00:04:05.867Z,100027.57
2017-12-26T00:06:34.566Z,100021.92
2017-12-26T00:09:03.209Z,100012.97
2017-12-26T00:11:32.008Z,100009.23
2017-12-26T00:14:01.328Z,100005.43
2017-12-26T00:16:31.589Z,100006.84
2017-12-26T00:19:00.199Z,100000.44
2017-12-26T00:21:28.840Z,99992.81
2017-12-26T00:23:57.531Z,99994.42
2017-12-26T00:26:27.172Z,99984.44
2017-12-26T00:28:55.811Z,99988.80
2017-12-26T00:31:24.530Z,99973.81
2017-12-26T00:33:53.167Z,99972.27
2017-12-26T00:36:22.951Z,99966.77
2017-12-26T00:38:51.532Z,99952.50
2017-12-26T00:41:20.679Z,99947.37
2017-12-26T00:43:50.266Z,99949.41
2017-12-26T00:46:19.795Z,99944.12
2017-12-26T00:48:50.021Z,99933.08
2017-12-26T00:51:20.539Z,99923.58
2017-12-26T00:53:49.134Z,99938.81
2017-12-26T00:56:17.811Z,99926.20
2017-12-26T00:58:46.797Z,99925.61
2017-12-26T01:01:15.421Z,99917.06
2017-12-26T01:03:44.073Z,99909.06
2017-12-26T01:06:12.776Z,99893.85
2017-12-26T01:08:42.520Z,99892.45
2017-12-26T01:11:11.282Z,99886.72
2017-12-26T01:13:39.852Z,99869.75
2017-12-26T01:16:09.173Z,99867.65
2017-12-26T01:18:37.958Z,99867.03
2017-12-26T01:21:07.178Z,99860.02
2017-12-26T01:23:35.900Z,99857.93
2017-12-26T01:26:04.608Z,99852.62
2017-12-26T01:28:33.284Z,99854.44
2017-12-26T01:31:02.551Z,99856.95
2017-12-26T01:33:31.203Z,99858.77
2017-12-26T01:35:59.957Z,99851.26
2017-12-26T01:38:29.935Z,99858.16
2017-12-26T01:41:00.056Z,99861.01
2017-12-26T01:43:28.804Z,99851.07
2017-12-26T01:49:02.135Z,99848.85
2017-12-26T01:51:30.932Z,99827.59
2017-12-26T01:53:59.738Z,99826.81
2017-12-26T01:56:28.601Z,99833.47
2017-12-26T01:58:57.518Z,99822.03
2017-12-26T02:01:26.515Z,99813.38
2017-12-26T02:03:55.400Z,99813.44
2017-12-26T02:06:24.097Z,99807.96
2017-12-26T02:08:52.812Z,99806.48
2017-12-26T02:11:21.640Z,99787.59
2017-12-26T02:13:50.428Z,99781.09
2017-12-26T02:16:19.137Z,99780.92
2017-12-26T02:18:48.624Z,99774.34
2017-12-26T02:21:17.326Z,99760.72
2017-12-26T02:23:45.913Z,99758.95
2017-12-26T02:26:14.519Z,99755.52
2017-12-26T02:28:43.142Z,99752.45
2017-12-26T02:31:12.708Z,99741.53
2017-12-26T02:33:41.421Z,99728.94
2017-12-26T02:36:10.993Z,99728.16
2017-12-26T02:38:40.540Z,99723.12
2017-12-26T02:41:09.251Z,99713.30
2017-12-26T02:43:38.293Z,99708.80
2017-12-26T02:46:06.970Z,99693.59
2017-12-26T02:48:36.616Z,99701.33
2017-12-26T02:51:06.118Z,99692.69
2017-12-26T02:53:35.319Z,99671.39
2017-12-26T02:56:04.033Z,99678.73
2017-12-26T02:58:32.748Z,99673.00
2017-12-26T03:01:01.425Z,99676.59
2017-12-26T03:03:31.710Z,99660.30
2017-12-26T03:06:00.602Z,99658.12
2017-12-26T03:08:29.032Z,99650.37
2017-12-26T03:10:57.798Z,99642.94
2017-12-26T03:13:26.130Z,99646.94
2017-12-26T03:15:54.456Z,99644.89
2017-12-26T03:18:22.777Z,99644.63
2017-12-26T03:20:51.091Z,99629.95
2017-12-26T03:23:19.439Z,99628.00
2017-12-26T03:25:48.642Z,99614.75
2017-12-26T03:28:16.975Z,99613.44
2017-12-26T03:30:45.459Z,99612.24
2017-12-26T03:33:13.800Z,99606.57
2017-12-26T03:35:42.118Z,99601.86
2017-12-26T03:38:10.454Z,99607.09
2017-12-26T03:40:38.765Z,99592.62
2017-12-26T03:43:07.106Z,99591.77
2017-12-26T03:45:35.425Z,99591.53
2017-12-26T03:48:03.755Z,99589.22
2017-12-26T03:50:33.105Z,99592.71
2017-12-26T03:53:02.048Z,99578.84
2017-12-26T03:55:30.370Z,99580.05
2017-12-26T03:57:58.718Z,99577.02
2017-12-26T04:00:27.031Z,99568.71
2017-12-26T04:02:55.363Z,99565.77
2017-12-26T04:05:23.678Z,99566.08
2017-12-26T04:07:52.027Z,99552.05
2017-12-26T04:10:20.639Z,99552.47
2017-12-26T04:12:48.980Z,99542.28
2017-12-26T04:15:18.223Z,99543.16
2017-12-26T04:17:46.559Z,99537.80
2017-12-26T04:20:14.879Z,99532.12
2017-12-26T04:22:43.213Z,99524.47
2017-12-26T04:25:11.599Z,99512.01
2017-12-26T04:27:39.902Z,99513.16
2017-12-26T04:30:08.250Z,99516.79
2017-12-26T04:32:36.578Z,99507.73
2017-12-26T04:35:04.931Z,99504.30
2017-12-26T04:37:33.242Z,99502.15
2017-12-26T04:40:01.581Z,99496.73
2017-12-26T04:42:29.915Z,99490.59
2017-12-26T04:44:58.250Z,99488.09
2017-12-26T04:47:26.566Z,99488.92
2017-12-26T04:49:55.210Z,99471.76
2017-12-26T04:52:29.225Z,99467.28
2017-12-26T04:54:57.562Z,99464.42
2017-12-26T04:57:25.883Z,99450.98
2017-12-26T04:59:54.232Z,99437.69
2017-12-26T05:02:22.542Z,99431.97
2017-12-26T05:04:50.878Z,99426.04
2017-12-26T05:07:19.203Z,99409.59
2017-12-26T05:09:47.555Z,99401.88
2017-12-26T05:12:15.876Z,99400.43
2017-12-26T05:14:44.210Z,99401.63
2017-12-26T05:17:12.527Z,99387.30
2017-12-26T05:19:40.871Z,99380.52
2017-12-26T05:22:09.183Z,99368.43
2017-12-26T05:24:37.514Z,99362.16
2017-12-26T05:27:05.833Z,99360.13
2017-12-26T05:29:34.174Z,99348.50
2017-12-26T05:32:02.494Z,99347.71
2017-12-26T05:34:30.850Z,99343.85
2017-12-26T05:36:59.169Z,99340.21
2017-12-26T05:39:27.514Z,99326.94
2017-12-26T05:41:55.826Z,99327.52
2017-12-26T05:44:24.172Z,99317.02
2017-12-26T05:46:52.485Z,99311.17
2017-12-26T05:49:20.830Z,99309.99
2017-12-26T05:51:49.147Z,99297.72
2017-12-26T05:54:17.490Z,99285.55
2017-12-26T05:56:45.806Z,99273.61
2017-12-26T05:59:14.146Z,99277.69
2017-12-26T06:01:42.458Z,99266.40
2017-12-26T06:04:10.794Z,99263.25
2017-12-26T06:06:39.109Z,99254.95
2017-12-26T06:09:07.445Z,99242.52
2017-12-26T06:11:35.815Z,99232.16
2017-12-26T06:14:04.146Z,99226.77
2017-12-26T06:16:32.458Z,99218.80
2017-12-26T06:19:00.796Z,99226.70
2017-12-26T06:21:29.115Z,99219.56
2017-12-26T06:23:57.473Z,99216.47
2017-12-26T06:26:25.802Z,99211.78
2017-12-26T06:28:54.122Z,99219.95
2017-12-26T06:31:23.462Z,99211.98
2017-12-26T06:33:51.786Z,99211.72
2017-12-26T06:36:20.132Z,99199.93
2017-12-26T06:38:48.450Z,99203.70
2017-12-26T06:41:16.795Z,99197.83
2017-12-26T06:43:45.115Z,99185.44
2017-12-26T06:46:13.454Z,99191.75
2017-12-26T06:48:41.778Z,99190.03
2017-12-26T06:51:10.279Z,99192.61
2017-12-26T06:53:38.599Z,99173.09
2017-12-26T06:56:06.939Z,99182.84
2017-12-26T06:58:35.258Z,99192.77
2017-12-26T07:01:03.594Z,99191.00
2017-12-26T07:03:31.915Z,99183.59
2017-12-26T07:06:00.260Z,99177.98
2017-12-26T07:08:28.578Z,99177.13
2017-12-26T07:10:56.918Z,99179.37
2017-12-26T07:13:25.233Z,99184.45
2017-12-26T07:15:53.578Z,99187.78
2017-12-26T07:18:21.890Z,99181.10
2017-12-26T07:20:55.870Z,99176.41
2017-12-26T07:23:24.187Z,99173.13
2017-12-26T07:25:52.518Z,99179.43
2017-12-26T07:28:20.838Z,99176.77
2017-12-26T07:30:49.174Z,99177.35
2017-12-26T07:33:18.202Z,99169.75
2017-12-26T07:35:46.534Z,99173.75
2017-12-26T07:38:14.849Z,99170.37
2017-12-26T07:40:43.198Z,99180.86
2017-12-26T07:43:11.510Z,99174.83
2017-12-26T07:45:39.850Z,99185.53
2017-12-26T07:48:08.171Z,99189.72
2017-12-26T07:50:36.505Z,99199.28
2017-12-26T07:53:04.910Z,99191.75
2017-12-26T07:55:34.141Z,99192.33
2017-12-26T07:58:02.475Z,99190.08
2017-12-26T08:00:30.819Z,99184.41
2017-12-26T08:02:59.139Z,99189.42
2017-12-26T08:05:27.483Z,99193.08
2017-12-26T08:07:55.810Z,99197.18
2017-12-26T08:10:24.184Z,99191.11
2017-12-26T08:12:52.550Z,99200.12
2017-12-26T08:15:20.886Z,99192.58
2017-12-26T08:17:49.206Z,99190.18
2017-12-26T08:20:17.550Z,99191.83
2017-12-26T08:22:45.891Z,99193.23
2017-12-26T08:25:14.488Z,99198.08
2017-12-26T08:27:42.794Z,99194.83
2017-12-26T08:30:11.138Z,99196.19
2017-12-26T08:32:40.273Z,99188.58
2017-12-26T08:35:08.619Z,99204.13
2017-12-26T08:37:36.941Z,99205.17
2017-12-26T08:40:05.246Z,99213.53
2017-12-26T08:42:33.587Z,99207.68
2017-12-26T08:45:01.893Z,99217.12
2017-12-26T08:47:30.231Z,99235.81
2017-12-26T08:49:58.555Z,99236.80
2017-12-26T08:52:27.929Z,99237.86
2017-12-26T08:54:56.239Z,99243.96
2017-12-26T08:57:24.570Z,99244.59
2017-12-26T08:59:52.908Z,99250.53
2017-12-26T09:02:21.233Z,99258.59
2017-12-26T09:04:49.546Z,99265.48
2017-12-26T09:07:17.891Z,99271.72
2017-12-26T09:09:46.216Z,99277.89
2017-12-26T09:12:14.637Z,99288.91
2017-12-26T09:14:42.947Z,99285.80
2017-12-26T09:17:11.274Z,99290.45
2017-12-26T09:19:39.603Z,99297.16
2017-12-26T09:22:07.930Z,99305.15
2017-12-26T09:24:36.250Z,99307.20
2017-12-26T09:27:04.578Z,99313.73
2017-12-26T09:29:32.886Z,99312.62
2017-12-26T09:32:02.310Z,99316.77
2017-12-26T09:34:30.651Z,99314.86
2017-12-26T09:36:59.062Z,99324.90
2017-12-26T09:39:27.455Z,99330.60
2017-12-26T09:41:55.792Z,99335.54
2017-12-26T09:44:24.106Z,99338.45
2017-12-26T09:46:52.495Z,99330.11
2017-12-26T09:49:20.878Z,99321.61
2017-12-26T09:51:49.465Z,99338.58
2017-12-26T09:54:18.598Z,99341.48
2017-12-26T09:56:46.977Z,99344.80
2017-12-26T09:59:15.545Z,99346.09
2017-12-26T10:01:44.118Z,99339.27
2017-12-26T10:04:12.543Z,99339.88
2017-12-26T10:06:41.089Z,99345.73
2017-12-26T10:09:09.574Z,99349.32
2017-12-26T10:11:38.027Z,99347.61
2017-12-26T10:14:06.370Z,99334.77
2017-12-26T10:16:34.731Z,99321.98
2017-12-26T10:19:03.041Z,99312.81
2017-12-26T10:21:31.377Z,99312.78
2017-12-26T10:23:59.694Z,99310.61
2017-12-26T10:26:28.027Z,99279.87
2017-12-26T10:28:56.355Z,99309.88
2017-12-26T10:31:24.945Z,99313.73
2017-12-26T10:33:53.734Z,99310.34
2017-12-26T10:36:22.394Z,99303.47
2017-12-26T10:38:51.064Z,99294.34
2017-12-26T10:41:20.299Z,99295.53
2017-12-26T10:43:49.024Z,99296.86
2017-12-26T10:46:17.694Z,99304.27
2017-12-26T10:48:46.568Z,99305.34
2017-12-26T10:51:15.344Z,99302.67
2017-12-26T10:53:44.120Z,99297.00
2017-12-26T10:56:12.588Z,99297.03
2017-12-26T10:58:41.140Z,99293.77
2017-12-26T11:01:09.806Z,99293.27
2017-12-26T11:03:38.377Z,99297.38
2017-12-26T11:06:06.882Z,99303.71
2017-12-26T11:08:35.528Z,99298.56
2017-12-26T11:11:04.202Z,99304.27
2017-12-26T11:13:32.969Z,99304.08
2017-12-26T11:16:02.655Z,99298.13
2017-12-26T11:18:31.459Z,99300.22
2017-12-26T11:21:00.133Z,99310.14
2017-12-26T11:23:29.660Z,99313.24
2017-12-26T11:25:58.436Z,99307.42
2017-12-26T11:28:27.158Z,99306.41
2017-12-26T11:30:55.720Z,99304.08
2017-12-26T11:33:24.443Z,99295.17
2017-12-26T11:35:53.098Z,99284.81
2017-12-26T11:38:21.799Z,99292.70
2017-12-26T11:40:50.490Z,99298.45
2017-12-26T11:43:19.225Z,99297.57
2017-12-26T11:45:49.007Z,99302.16
2017-12-26T11:48:17.664Z,99301.50
2017-12-26T11:50:46.247Z,99295.94
2017-12-26T11:53:15.249Z,99299.70
2017-12-26T11:55:43.844Z,99302.28
2017-12-26T11:58:12.537Z,99301.02
2017-12-26T12:00:42.254Z,99291.03
2017-12-26T12:03:10.986Z,99298.81
2017-12-26T12:05:40.743Z,99291.98
2017-12-26T12:08:09.459Z,99290.60
2017-12-26T12:10:38.079Z,99290.63
2017-12-26T12:13:06.890Z,99293.65
2017-12-26T12:15:35.554Z,99284.45
2017-12-26T12:18:04.384Z,99289.11
2017-12-26T12:20:32.905Z,99291.60
2017-12-26T12:23:01.721Z,99299.02
2017-12-26T12:25:30.595Z,99307.77
2017-12-26T12:27:59.376Z,99303.73
2017-12-26T12:30:28.007Z,99309.02
2017-12-26T12:32:56.664Z,99300.29
2017-12-26T12:35:25.257Z,99301.97
2017-12-26T12:37:54.630Z,99311.76
2017-12-26T12:40:24.196Z,99312.36
2017-12-26T12:42:52.861Z,99312.66
2017-12-26T12:45:22.680Z,99317.80
2017-12-26T12:47:51.231Z,99309.39
2017-12-26T12:50:19.902Z,99304.24
2017-12-26T12:52:48.718Z,99306.45
2017-12-26T12:55:17.459Z,99311.05
2017-12-26T12:57:46.284Z,99312.45
2017-12-26T13:00:14.998Z,99321.94
2017-12-26T13:02:43.658Z,99322.33
2017-12-26T13:05:12.024Z,99315.67
2017-12-26T13:07:40.338Z,99311.05
2017-12-26T13:10:08.687Z,99325.27
2017-12-26T13:12:37.044Z,99318.66
2017-12-26T13:15:05.384Z,99328.61
2017-12-26T13:17:33.707Z,99323.79
2017-12-26T13:20:02.072Z,99340.16
2017-12-26T13:22:30.387Z,99336.99
2017-12-26T13:24:59.614Z,99331.69
2017-12-26T13:27:27.936Z,99334.45
2017-12-26T13:29:56.645Z,99332.51
2017-12-26T13:32:25.335Z,99336.81
2017-12-26T13:34:53.989Z,99337.87
2017-12-26T13:37:22.535Z,99338.12
2017-12-26T13:39:51.210Z,99338.85
2017-12-26T13:42:19.822Z,99342.77
2017-12-26T13:44:48.500Z,99334.89
2017-12-26T13:47:17.018Z,99344.49
2017-12-26T13:49:46.445Z,99338.52
2017-12-26T13:52:15.073Z,99344.42
2017-12-26T13:54:43.850Z,99344.22
2017-12-26T13:57:12.453Z,99342.84
2017-12-26T13:59:41.168Z,99350.59
2017-12-26T14:02:09.610Z,99351.88
2017-12-26T14:04:37.934Z,99350.76
2017-12-26T14:07:06.250Z,99342.41
2017-12-26T14:09:34.595Z,99345.78
2017-12-26T14:12:02.915Z,99345.84
2017-12-26T14:14:31.263Z,99350.27
2017-12-26T14:16:59.583Z,99356.03
2017-12-26T14:19:27.920Z,99349.20
2017-12-26T14:21:56.231Z,99354.53
2017-12-26T14:24:24.595Z,99347.05
2017-12-26T14:26:52.992Z,99355.17
2017-12-26T14:29:21.607Z,99359.69
2017-12-26T14:31:49.936Z,99355.85
2017-12-26T14:34:18.271Z,99354.66
2017-12-26T14:36:46.592Z,99367.53
2017-12-26T14:39:14.929Z,99352.91
2017-12-26T14:41:43.250Z,99358.76
2017-12-26T14:44:11.587Z,99364.38
2017-12-26T14:46:39.906Z,99372.67
2017-12-26T14:49:08.242Z,99357.62
2017-12-26T14:51:36.554Z,99360.11
2017-12-26T14:54:04.961Z,99368.53
2017-12-26T14:56:33.282Z,99364.69
2017-12-26T14:59:01.829Z,99358.63
2017-12-26T15:01:30.222Z,99360.41
2017-12-26T15:03:58.545Z,99365.81
2017-12-26T15:06:26.843Z,99365.26
2017-12-26T15:08:55.178Z,99369.89
2017-12-26T15:11:23.521Z,99363.42
2017-12-26T15:13:51.837Z,99372.83
2017-12-26T15:16:20.228Z,99369.36
2017-12-26T15:18:48.701Z,99375.03
2017-12-26T15:21:17.039Z,99374.16
2017-12-26T15:23:45.643Z,99371.96
2017-12-26T15:26:13.978Z,99377.90
2017-12-26T15:28:42.317Z,99376.55
2017-12-26T15:31:11.368Z,99385.27
2017-12-26T15:33:39.994Z,99391.52
2017-12-26T15:36:08.727Z,99397.61
2017-12-26T15:38:37.392Z,99398.69
2017-12-26T15:41:06.039Z,99388.59
2017-12-26T15:43:34.597Z,99383.73
2017-12-26T15:46:03.237Z,99393.55
2017-12-26T15:48:31.873Z,99392.75
2017-12-26T15:51:00.587Z,99391.42
2017-12-26T15:53:29.034Z,99392.16
2017-12-26T15:55:58.389Z,99390.08
2017-12-26T15:58:26.694Z,99389.46
2017-12-26T16:00:55.051Z,99388.77
2017-12-26T16:03:23.362Z,99390.59
2017-12-26T16:05:51.701Z,99398.94
2017-12-26T16:08:20.020Z,99408.27
2017-12-26T16:10:48.362Z,99407.23
2017-12-26T16:13:16.680Z,99407.21
2017-12-26T16:15:45.033Z,99397.47
2017-12-26T16:18:14.336Z,99398.96
2017-12-26T16:20:42.674Z,99399.77
2017-12-26T16:23:11.001Z,99398.33
2017-12-26T16:25:39.336Z,99401.59
2017-12-26T16:28:07.651Z,99393.64
2017-12-26T16:30:35.989Z,99402.58
2017-12-26T16:33:04.305Z,99402.43
2017-12-26T16:35:33.694Z,99401.81
2017-12-26T16:38:02.022Z,99403.49
2017-12-26T16:40:30.387Z,99407.53
2017-12-26T16:42:58.730Z,99399.34
2017-12-26T16:45:28.038Z,99401.48
2017-12-26T16:47:56.370Z,99397.47
2017-12-26T16:50:24.726Z,99396.61
2017-12-26T16:52:53.059Z,99402.59
2017-12-26T16:55:22.364Z,99399.11
2017-12-26T16:57:50.673Z,99398.91
2017-12-26T17:00:19.005Z,99402.52
2017-12-26T17:02:47.321Z,99398.80
2017-12-26T17:05:15.654Z,99395.28
2017-12-26T17:07:44.722Z,99398.81
2017-12-26T17:10:13.154Z,99408.32
2017-12-26T17:12:41.470Z,99397.59
2017-12-26T17:15:09.846Z,99401.29
2017-12-26T17:17:38.168Z,99397.75
2017-12-26T17:20:06.487Z,99394.81
2017-12-26T17:22:34.818Z,99395.02
2017-12-26T17:25:03.214Z,99396.89
2017-12-26T17:27:31.644Z,99397.75
2017-12-26T17:30:00.951Z,99409.80
2017-12-26T17:32:29.302Z,99400.09
2017-12-26T17:34:57.684Z,99405.99
2017-12-26T17:37:26.122Z,99398.67
2017-12-26T17:39:54.447Z,99403.79
2017-12-26T17:42:22.786Z,99408.31
2017-12-26T17:44:51.147Z,99404.53
2017-12-26T17:47:19.487Z,99404.22
2017-12-26T17:49:47.851Z,99398.97
2017-12-26T17:52:16.195Z,99392.67
2017-12-26T17:54:44.507Z,99394.88
2017-12-26T17:57:12.839Z,99390.06
2017-12-26T17:59:41.154Z,99381.80
2017-12-26T18:02:09.643Z,99376.30
2017-12-26T18:04:37.955Z,99377.30
2017-12-26T18:07:06.294Z,99374.45
2017-12-26T18:09:34.621Z,99370.59
2017-12-26T18:12:02.950Z,99368.17
2017-12-26T18:14:31.280Z,99364.40
2017-12-26T18:16:59.614Z,99368.04
2017-12-26T18:19:27.937Z,99373.59
2017-12-26T18:21:56.275Z,99369.98
2017-12-26T18:24:24.583Z,99374.34
2017-12-26T18:26:52.915Z,99376.52
2017-12-26T18:29:21.236Z,99384.19
2017-12-26T18:31:49.565Z,99387.45
2017-12-26T18:34:17.881Z,99384.01
2017-12-26T18:36:46.213Z,99381.54
2017-12-26T18:39:14.525Z,99385.44
2017-12-26T18:41:42.858Z,99390.36
2017-12-26T18:44:11.177Z,99383.92
2017-12-26T18:46:39.506Z,99384.13
2017-12-26T18:49:07.817Z,99382.46
2017-12-26T18:51:36.151Z,99379.82
2017-12-26T18:54:04.455Z,99384.87
2017-12-26T18:56:32.797Z,99378.02
2017-12-26T18:59:01.114Z,99376.98
2017-12-26T19:01:29.449Z,99376.02
2017-12-26T19:03:57.757Z,99370.14
2017-12-26T19:06:26.095Z,99370.31
2017-12-26T19:08:54.405Z,99378.88
2017-12-26T19:11:22.764Z,99375.95
2017-12-26T19:13:51.073Z,99374.34
2017-12-26T19:16:19.390Z,99360.76
2017-12-26T19:18:47.726Z,99363.54
2017-12-26T19:21:16.043Z,99358.33
2017-12-26T19:23:44.376Z,99359.05
2017-12-26T19:26:12.685Z,99356.13
2017-12-26T19:28:41.021Z,99353.77
2017-12-26T19:31:09.333Z,99347.59
2017-12-26T19:33:37.666Z,99347.44
2017-12-26T19:36:06.927Z,99352.84
2017-12-26T19:38:35.262Z,99346.09
2017-12-26T19:41:03.569Z,99343.52
2017-12-26T19:43:31.902Z,99352.55
2017-12-26T19:46:00.209Z,99343.75
2017-12-26T19:48:28.546Z,99343.94
2017-12-26T19:50:56.848Z,99332.38
2017-12-26T19:53:25.194Z,99330.33
2017-12-26T19:55:53.733Z,99325.64
2017-12-26T19:58:22.086Z,99320.11
2017-12-26T20:00:50.393Z,99319.69
2017-12-26T20:03:25.548Z,99325.50
2017-12-26T20:05:56.671Z,99306.33
2017-12-26T20:08:24.999Z,99308.36
2017-12-26T20:10:53.307Z,99306.04
2017-12-26T20:13:21.674Z,99304.80
2017-12-26T20:15:49.982Z,99304.58
2017-12-26T20:18:18.417Z,99308.41
2017-12-26T20:20:46.843Z,99303.95
2017-12-26T20:23:15.178Z,99301.57
2017-12-26T20:25:43.553Z,99287.99
2017-12-26T20:28:17.533Z,99281.21
2017-12-26T20:30:45.841Z,99284.98
2017-12-26T20:33:14.178Z,99290.76
2017-12-26T20:35:42.585Z,99285.78
2017-12-26T20:38:10.922Z,99271.37
2017-12-26T20:40:39.274Z,99272.82
2017-12-26T20:43:07.673Z,99269.63
2017-12-26T20:45:35.965Z,99264.48
2017-12-26T20:48:04.301Z,99258.25
2017-12-26T20:50:33.422Z,99258.82
2017-12-26T20:53:01.797Z,99255.42
2017-12-26T20:55:31.142Z,99244.75
2017-12-26T20:57:59.698Z,99238.66
2017-12-26T21:00:28.050Z,99240.63
2017-12-26T21:02:56.381Z,99232.05
2017-12-26T21:05:24.910Z,99230.63
2017-12-26T21:07:53.429Z,99223.58
2017-12-26T21:10:21.742Z,99209.30
2017-12-26T21:12:50.073Z,99208.98
2017-12-26T21:15:19.394Z,99211.91
2017-12-26T21:17:47.761Z,99210.63
2017-12-26T21:20:16.082Z,99200.67
2017-12-26T21:22:44.506Z,99201.72
2017-12-26T21:25:13.226Z,99200.23
2017-12-26T21:27:41.553Z,99197.75
2017-12-26T21:30:09.950Z,99202.13
2017-12-26T21:32:38.334Z,99195.34
2017-12-26T21:35:06.720Z,99192.79
2017-12-26T21:37:35.021Z,99187.53
2017-12-26T21:40:03.528Z,99188.25
2017-12-26T21:42:32.018Z,99181.01
2017-12-26T21:45:01.105Z,99170.70
2017-12-26T21:47:29.414Z,99163.91
2017-12-26T21:49:57.784Z,99164.20
2017-12-26T21:52:26.117Z,99157.05
2017-12-26T21:54:54.549Z,99158.30
2017-12-26T21:57:22.929Z,99156.52
2017-12-26T21:59:51.263Z,99148.18
2017-12-26T22:02:19.585Z,99147.12
2017-12-26T22:04:47.924Z,99151.05
2017-12-26T22:07:16.330Z,99152.39
2017-12-26T22:09:44.718Z,99147.00
2017-12-26T22:12:13.070Z,99151.43
2017-12-26T22:14:41.414Z,99141.95
2017-12-26T22:17:09.793Z,99149.94
2017-12-26T22:19:38.271Z,99149.38
2017-12-26T22:22:06.600Z,99151.15
2017-12-26T22:24:35.193Z,99142.66
2017-12-26T22:27:03.510Z,99140.55
2017-12-26T22:29:31.838Z,99139.09
2017-12-26T22:32:00.206Z,99135.75
2017-12-26T22:34:28.537Z,99127.55
2017-12-26T22:36:56.845Z,99126.43
2017-12-26T22:39:25.182Z,99112.19
2017-12-26T22:41:53.493Z,99109.63
2017-12-26T22:44:21.925Z,99101.23
2017-12-26T22:46:50.258Z,99098.83
2017-12-26T22:49:18.590Z,99093.29
2017-12-26T22:51:46.901Z,99086.93
2017-12-26T22:54:15.289Z,99078.61
2017-12-26T22:56:43.597Z,99078.05
2017-12-26T22:59:11.933Z,99079.67
2017-12-26T23:01:40.241Z,99079.95
2017-12-26T23:04:09.592Z,99072.59
2017-12-26T23:06:37.913Z,99073.03
2017-12-26T23:09:06.245Z,99070.74
2017-12-26T23:11:34.574Z,99070.13
2017-12-26T23:14:08.533Z,99067.31
2017-12-26T23:16:42.398Z,99072.14
2017-12-26T23:19:10.733Z,99059.36
2017-12-26T23:21:39.050Z,99059.39
2017-12-26T23:24:13.042Z,99054.11
2017-12-26T23:26:46.850Z,99048.70
2017-12-26T23:29:20.766Z,99046.97
2017-12-26T23:31:54.614Z,99046.12
2017-12-26T23:37:35.597Z,99034.19
2017-12-26T23:40:09.634Z,99034.79
2017-12-26T23:42:43.449Z,99022.06
2017-12-26T23:45:17.489Z,99018.28
2017-12-26T23:47:51.414Z,99018.68
2017-12-26T23:50:25.377Z,99019.74
2017-12-26T23:52:59.218Z,99023.64
2017-12-26T23:55:33.154Z,99018.52
2017-12-26T23:58:06.973Z,99017.32
